Time;durP1;ratioP1;P1;durP2;ratioP2;P2;SDS_P1;SDS_P2;PMS_P1;PMS_P2;Temp;Humidity;BMP_temperature;BMP_pressure;BME280_temperature;BME280_humidity;BME280_pressure;Samples;Min_cycle;Max_cycle;Signal;HPM_P1;HPM_P2
2024/04/14 00:01:49;;;;;;;9.40;5.90;;;;;;;12.89;69.82;100473.97;128277;1259;113438;-60
2024/04/14 00:04:55;;;;;;;9.00;6.40;;;;;;;12.89;69.79;100471.15;128186;1258;113337;-59
2024/04/14 00:07:59;;;;;;;7.70;5.40;;;;;;;12.87;69.91;100469.46;128303;1265;128725;-61
2024/04/14 00:11:04;;;;;;;6.80;6.10;;;;;;;12.85;70.13;100470.80;127974;1262;113694;-59
2024/04/14 00:14:09;;;;;;;7.70;5.40;;;;;;;12.82;70.33;100470.83;128038;1262;113524;-61
2024/04/14 00:17:15;;;;;;;8.40;5.60;;;;;;;12.80;70.40;100464.12;127967;1264;113407;-61
2024/04/14 00:20:22;;;;;;;7.50;5.50;;;;;;;12.78;70.48;100461.35;127788;1262;113451;-59
2024/04/14 00:23:29;;;;;;;9.10;5.10;;;;;;;12.77;70.64;100455.16;127899;1264;128691;-60
2024/04/14 00:26:35;;;;;;;8.00;5.70;;;;;;;12.76;70.85;100454.10;127850;1285;115021;-60
2024/04/14 00:29:39;;;;;;;8.70;6.00;;;;;;;12.76;70.92;100448.20;127945;1259;113323;-60
2024/04/14 00:32:44;;;;;;;8.70;5.30;;;;;;;12.74;71.08;100441.11;128350;1259;113255;-59
2024/04/14 00:35:50;;;;;;;6.80;5.70;;;;;;;12.74;71.17;100440.63;128294;1259;113242;-59
2024/04/14 00:38:56;;;;;;;8.80;4.90;;;;;;;12.74;71.20;100440.10;128212;1281;128775;-59
2024/04/14 00:42:02;;;;;;;10.90;5.50;;;;;;;12.74;71.23;100438.63;128239;1263;114744;-60
2024/04/14 00:45:11;;;;;;;13.10;6.00;;;;;;;12.75;71.50;100433.05;128322;1257;113455;-60
2024/04/14 00:48:16;;;;;;;6.70;5.00;;;;;;;12.75;71.37;100434.59;128289;1257;113203;-59
2024/04/14 00:51:21;;;;;;;7.50;5.60;;;;;;;12.75;71.56;100427.98;128248;1258;113182;-60
2024/04/14 00:54:26;;;;;;;6.90;5.00;;;;;;;12.75;71.65;100423.70;128017;1258;127904;-61
2024/04/14 00:57:31;;;;;;;7.00;5.40;;;;;;;12.75;71.58;100420.48;128433;1261;114823;-60
2024/04/14 01:00:36;;;;;;;7.90;5.60;;;;;;;12.73;71.49;100416.09;128100;1257;113295;-59
2024/04/14 01:03:41;;;;;;;8.60;5.20;;;;;;;12.71;71.61;100411.73;128099;1257;113357;-59
2024/04/14 01:06:48;;;;;;;10.70;5.50;;;;;;;12.70;71.58;100410.36;128194;1259;113224;-61
2024/04/14 01:09:52;;;;;;;6.20;4.50;;;;;;;12.67;71.61;100401.55;128240;1262;128916;-61
2024/04/14 01:12:57;;;;;;;9.00;6.00;;;;;;;12.64;72.03;100402.45;128219;1261;114480;-61
2024/04/14 01:16:03;;;;;;;8.30;5.10;;;;;;;12.60;71.84;100395.11;128099;1257;113502;-60
2024/04/14 01:19:08;;;;;;;7.20;5.70;;;;;;;12.58;72.13;100391.50;128305;1258;114657;-61
2024/04/14 01:22:15;;;;;;;7.10;5.20;;;;;;;12.55;72.04;100391.30;128151;1258;113323;-60
2024/04/14 01:25:22;;;;;;;6.60;4.30;;;;;;;12.52;72.05;100385.39;128061;1281;128073;-60
2024/04/14 01:28:26;;;;;;;7.00;5.20;;;;;;;12.50;71.97;100378.02;128225;1261;114963;-60
2024/04/14 01:31:31;;;;;;;6.30;4.90;;;;;;;12.45;71.99;100376.27;128346;1259;113184;-60
2024/04/14 01:34:37;;;;;;;6.70;5.50;;;;;;;12.42;71.98;100377.89;128300;1259;113218;-61
2024/04/14 01:37:42;;;;;;;8.20;5.20;;;;;;;12.37;71.95;100374.59;128358;1259;114049;-62
2024/04/14 01:40:48;;;;;;;8.80;4.50;;;;;;;12.31;72.09;100369.89;128231;1281;128678;-60
2024/04/14 01:43:54;;;;;;;8.30;4.50;;;;;;;12.26;72.25;100367.13;128088;1261;114603;-61
2024/04/14 01:47:02;;;;;;;9.80;5.40;;;;;;;12.21;72.74;100360.58;128350;1257;113697;-65
2024/04/14 01:50:13;;;;;;;5.40;3.90;;;;;;;12.16;72.61;100360.33;128199;1259;115277;-61
2024/04/14 01:53:20;;;;;;;7.30;4.70;;;;;;;12.11;72.84;100354.02;127990;1258;113728;-60
2024/04/14 01:56:27;;;;;;;5.70;4.50;;;;;;;12.07;72.93;100347.98;128239;1281;129119;-62
2024/04/14 01:59:35;;;;;;;8.20;5.30;;;;;;;12.04;72.88;100343.85;128475;1261;114152;-69
2024/04/14 02:02:38;;;;;;;7.10;4.90;;;;;;;11.99;73.06;100340.14;128276;1259;113457;-73
2024/04/14 02:05:46;;;;;;;7.90;5.60;;;;;;;11.95;73.24;100333.52;128262;1259;113483;-70
2024/04/14 02:08:59;;;;;;;7.60;5.70;;;;;;;11.92;73.55;100331.54;128085;1267;113260;-63
2024/04/14 02:12:07;;;;;;;6.20;4.30;;;;;;;11.89;73.36;100323.12;126178;1262;2996656;-69
2024/04/14 02:15:13;;;;;;;6.90;4.90;;;;;;;11.86;73.66;100320.98;128305;1259;114192;-69
2024/04/14 02:18:20;;;;;;;6.10;4.70;;;;;;;11.83;73.70;100318.20;128108;1272;115360;-68
2024/04/14 02:21:24;;;;;;;7.50;5.10;;;;;;;11.83;74.22;100319.48;128218;1257;113485;-70
2024/04/14 02:24:32;;;;;;;6.60;4.80;;;;;;;11.82;74.12;100314.88;128442;1257;113553;-69
2024/04/14 02:27:36;;;;;;;8.00;4.40;;;;;;;11.81;74.13;100314.05;128397;1281;127776;-74
2024/04/14 02:30:41;;;;;;;6.20;5.00;;;;;;;11.81;74.12;100310.33;128170;1261;114711;-69
2024/04/14 02:33:50;;;;;;;8.10;5.80;;;;;;;11.81;74.63;100304.77;128258;1259;113507;-60
2024/04/14 02:36:55;;;;;;;7.50;5.30;;;;;;;11.80;74.47;100304.45;128252;1259;113242;-61
2024/04/14 02:40:00;;;;;;;6.50;5.00;;;;;;;11.80;74.91;100299.83;128071;1259;113470;-60
2024/04/14 02:43:08;;;;;;;6.10;4.50;;;;;;;11.78;74.97;100294.55;128371;1281;127803;-60
2024/04/14 02:46:15;;;;;;;6.20;4.70;;;;;;;11.77;75.34;100294.41;128305;1261;114599;-60
2024/04/14 02:49:20;;;;;;;5.70;5.00;;;;;;;11.76;75.16;100288.95;128206;1259;114672;-60
2024/04/14 02:52:25;;;;;;;6.30;4.50;;;;;;;11.74;75.26;100292.81;128237;1263;113299;-61
2024/04/14 02:55:30;;;;;;;7.40;5.60;;;;;;;11.72;75.22;100294.01;128289;1258;114701;-66
2024/04/14 02:58:35;;;;;;;7.70;4.80;;;;;;;11.68;75.18;100287.37;128047;1268;128112;-60
2024/04/14 03:01:39;;;;;;;7.00;4.80;;;;;;;11.65;75.60;100278.09;128201;1261;114560;-60
2024/04/14 03:04:49;;;;;;;7.60;4.90;;;;;;;11.64;75.62;100275.61;128087;1258;113520;-60
2024/04/14 03:07:54;;;;;;;6.20;5.20;;;;;;;11.62;75.73;100273.41;128112;1259;113229;-60
2024/04/14 03:10:59;;;;;;;6.60;5.10;;;;;;;11.59;75.90;100268.20;128406;1259;113512;-61
2024/04/14 03:14:04;;;;;;;6.10;4.40;;;;;;;11.57;75.93;100265.83;128432;1266;128131;-61
2024/04/14 03:17:11;;;;;;;6.70;5.70;;;;;;;11.55;75.97;100265.03;128312;1261;114020;-60
2024/04/14 03:20:19;;;;;;;8.60;5.30;;;;;;;11.53;76.06;100262.23;128274;1261;113510;-59
2024/04/14 03:23:24;;;;;;;6.70;5.10;;;;;;;11.51;76.09;100256.80;128395;1259;113533;-59
2024/04/14 03:26:28;;;;;;;7.90;5.90;;;;;;;11.49;75.83;100253.00;128248;1259;113230;-61
2024/04/14 03:29:34;;;;;;;7.10;5.30;;;;;;;11.47;76.25;100243.28;128197;1281;127981;-60
2024/04/14 03:32:38;;;;;;;9.30;6.00;;;;;;;11.45;76.14;100240.86;128333;1261;114164;-61
2024/04/14 03:35:45;;;;;;;7.40;4.80;;;;;;;11.44;76.44;100239.86;128272;1259;113145;-60
2024/04/14 03:38:54;;;;;;;8.80;6.10;;;;;;;11.44;76.33;100241.85;128294;1258;114778;-60
2024/04/14 03:41:57;;;;;;;10.70;7.00;;;;;;;11.43;76.45;100243.13;128516;1261;113404;-59
2024/04/14 03:45:09;;;;;;;7.60;5.70;;;;;;;11.42;76.94;100239.45;128257;1261;128935;-59
2024/04/14 03:48:13;;;;;;;8.20;6.00;;;;;;;11.41;76.64;100236.98;128257;1261;114818;-59
2024/04/14 03:51:21;;;;;;;9.60;6.50;;;;;;;11.39;76.94;100238.70;128311;1257;115368;-59
2024/04/14 03:54:26;;;;;;;8.90;6.60;;;;;;;11.37;77.02;100239.34;128334;1259;113302;-59
2024/04/14 03:57:32;;;;;;;9.30;6.50;;;;;;;11.34;77.18;100234.30;128271;1259;113584;-59
2024/04/14 04:00:36;;;;;;;;;;;;;;;11.33;77.01;100231.90;128290;1281;128728;-59
2024/04/14 04:03:47;;;;;;;13.70;7.10;;;;;;;11.29;76.93;100237.05;128174;1262;115423;-59
2024/04/14 04:06:54;;;;;;;9.10;6.80;;;;;;;11.26;77.40;100238.48;128332;1260;113227;-59
2024/04/14 04:09:59;;;;;;;8.10;6.30;;;;;;;11.24;77.39;100233.77;128262;1259;113211;-59
2024/04/14 04:13:04;;;;;;;8.20;6.40;;;;;;;11.23;77.29;100233.27;128299;1259;113216;-59
2024/04/14 04:16:09;;;;;;;8.90;5.90;;;;;;;11.23;77.47;100231.33;128233;1262;127863;-59
2024/04/14 04:19:14;;;;;;;11.30;7.10;;;;;;;11.21;77.19;100230.32;128252;1261;114514;-60
2024/04/14 04:22:19;;;;;;;9.60;6.70;;;;;;;11.22;77.28;100230.48;128037;1262;113355;-60
2024/04/14 04:25:27;;;;;;;8.40;6.60;;;;;;;11.24;77.57;100230.56;128373;1261;113236;-60
2024/04/14 04:28:33;;;;;;;9.40;6.20;;;;;;;11.27;77.38;100228.79;128170;1261;113170;-60
2024/04/14 04:31:39;;;;;;;11.00;6.20;;;;;;;11.30;77.64;100231.85;128196;1281;127705;-61
2024/04/14 04:34:46;;;;;;;8.00;6.30;;;;;;;11.34;77.97;100233.95;128106;1261;114123;-60
2024/04/14 04:37:54;;;;;;;7.90;6.40;;;;;;;11.40;77.60;100230.08;128380;1261;114822;-60
2024/04/14 04:40:58;;;;;;;7.90;6.30;;;;;;;11.47;78.29;100231.66;128079;1259;113313;-60
2024/04/14 04:44:05;;;;;;;8.70;6.10;;;;;;;11.53;78.10;100231.30;128345;1262;113184;-60
2024/04/14 04:47:09;;;;;;;6.90;5.80;;;;;;;11.62;78.59;100236.17;128172;1262;128017;-60
2024/04/14 04:50:14;;;;;;;8.70;5.90;;;;;;;11.72;78.41;100236.72;128085;1259;114295;-59
2024/04/14 04:53:19;;;;;;;10.00;6.40;;;;;;;11.83;78.66;100237.00;128332;1258;113618;-61
2024/04/14 04:56:22;;;;;;;;;;;;;;;11.96;78.23;100234.52;128343;1257;113206;-60
2024/04/14 04:59:30;;;;;;;7.50;6.20;;;;;;;12.08;78.81;100232.77;128271;1261;113227;-61
2024/04/14 05:02:37;;;;;;;9.50;5.90;;;;;;;12.21;78.49;100229.35;128211;1281;128715;-61
2024/04/14 05:05:43;;;;;;;6.80;5.20;;;;;;;12.35;78.73;100222.29;128366;1259;115283;-61
2024/04/14 05:08:48;;;;;;;7.60;5.70;;;;;;;12.51;78.76;100219.23;128120;1260;113617;-65
2024/04/14 05:11:54;;;;;;;7.70;5.80;;;;;;;12.68;78.82;100215.01;128306;1257;113329;-68
2024/04/14 05:15:04;;;;;;;8.30;4.50;;;;;;;12.86;78.57;100213.52;128304;1259;114789;-66
2024/04/14 05:18:13;;;;;;;7.60;5.40;;;;;;;13.07;78.73;100212.10;128049;1281;127814;-65
2024/04/14 05:21:21;;;;;;;8.90;5.20;;;;;;;13.27;78.69;100214.11;128169;1262;115001;-63
2024/04/14 05:24:28;;;;;;;7.50;5.20;;;;;;;13.49;78.69;100216.19;128045;1259;113222;-62
2024/04/14 05:27:36;;;;;;;5.30;3.70;;;;;;;13.71;78.79;100211.91;128171;1261;114321;-63
2024/04/14 05:30:46;;;;;;;5.80;4.30;;;;;;;13.96;78.72;100214.28;128361;1266;114811;-72
2024/04/14 05:33:56;;;;;;;5.30;4.10;;;;;;;14.22;78.57;100214.91;128379;1281;128021;-67
2024/04/14 05:37:04;;;;;;;6.30;4.00;;;;;;;14.49;78.93;100215.96;128577;1261;114545;-60
2024/04/14 05:40:14;;;;;;;6.40;3.70;;;;;;;14.80;78.70;100217.33;128361;1259;113563;-60
2024/04/14 05:43:20;;;;;;;3.40;2.60;;;;;;;15.11;78.70;100221.11;128267;1260;113222;-60
2024/04/14 05:46:25;;;;;;;4.20;2.80;;;;;;;15.43;78.95;100219.81;128142;1265;113459;-60
2024/04/14 05:49:34;;;;;;;3.30;2.00;;;;;;;15.75;78.29;100220.58;128092;1262;127730;-60
2024/04/14 05:52:39;;;;;;;3.10;2.10;;;;;;;16.05;77.62;100225.48;128316;1259;115380;-60
2024/04/14 05:55:45;;;;;;;3.00;2.20;;;;;;;16.37;77.40;100216.77;128129;1259;115996;-59
2024/04/14 05:58:53;;;;;;;3.20;1.90;;;;;;;16.70;76.89;100211.40;128442;1259;113245;-60
2024/04/14 06:01:56;;;;;;;3.40;2.70;;;;;;;17.02;76.40;100211.37;128302;1265;113155;-60
2024/04/14 06:05:04;;;;;;;4.00;1.90;;;;;;;17.33;75.98;100206.20;128033;1281;127802;-60
2024/04/14 06:08:11;;;;;;;2.90;1.60;;;;;;;17.65;75.52;100209.79;128271;1264;114927;-61
2024/04/14 06:11:22;;;;;;;3.90;1.80;;;;;;;18.00;75.03;100207.88;128176;1264;113584;-61
2024/04/14 06:14:27;;;;;;;2.70;1.80;;;;;;;18.39;74.26;100211.91;128162;1263;113235;-60
2024/04/14 06:17:32;;;;;;;7.20;2.10;;;;;;;18.81;73.44;100213.65;128072;1260;113553;-60
2024/04/14 06:20:39;;;;;;;3.20;1.80;;;;;;;19.23;73.00;100213.84;128077;1266;127796;-61
2024/04/14 06:23:46;;;;;;;2.80;1.70;;;;;;;19.69;72.42;100213.25;127965;1264;113793;-63
2024/04/14 06:26:52;;;;;;;3.90;1.90;;;;;;;20.16;71.64;100214.13;128280;1264;113209;-60
2024/04/14 06:29:56;;;;;;;3.60;2.00;;;;;;;20.56;70.53;100215.17;128279;1259;113479;-64
2024/04/14 06:33:01;;;;;;;3.00;1.50;;;;;;;20.92;69.31;100215.88;128381;1263;113523;-63
2024/04/14 06:36:07;;;;;;;3.70;1.60;;;;;;;21.25;68.27;100220.02;128136;1281;128011;-63
2024/04/14 06:39:11;;;;;;;2.80;1.70;;;;;;;21.60;67.56;100221.45;128371;1264;114103;-62
2024/04/14 06:42:16;;;;;;;4.20;1.80;;;;;;;21.93;66.89;100224.73;128508;1259;113627;-61
2024/04/14 06:45:21;;;;;;;6.10;2.00;;;;;;;22.17;65.60;100214.59;128365;1262;113467;-66
2024/04/14 06:48:28;;;;;;;3.20;1.60;;;;;;;22.37;64.82;100219.52;128426;1263;113197;-63
2024/04/14 06:51:35;;;;;;;2.70;1.20;;;;;;;22.56;64.43;100214.91;128423;1264;128565;-62
2024/04/14 06:54:44;;;;;;;5.90;1.70;;;;;;;22.79;63.77;100214.90;128547;1263;114737;-63
2024/04/14 06:57:49;;;;;;;2.80;1.70;;;;;;;23.00;63.08;100216.05;128868;1261;113253;-63
2024/04/14 07:00:56;;;;;;;2.70;1.50;;;;;;;23.19;62.24;100220.98;128423;1258;113356;-63
2024/04/14 07:04:02;;;;;;;3.90;1.90;;;;;;;23.35;61.32;100217.74;128449;1271;113530;-64
2024/04/14 07:07:09;;;;;;;2.30;1.40;;;;;;;23.46;60.91;100224.47;128379;1262;128725;-61
2024/04/14 07:10:14;;;;;;;4.00;1.70;;;;;;;23.53;60.09;100219.83;128169;1281;115560;-61
2024/04/14 07:13:19;;;;;;;3.90;1.50;;;;;;;23.65;59.47;100225.18;128232;1259;113340;-61
2024/04/14 07:16:24;;;;;;;3.70;1.60;;;;;;;23.83;59.24;100221.80;128079;1262;114724;-62
2024/04/14 07:19:30;;;;;;;6.40;1.50;;;;;;;24.12;58.51;100230.02;128273;1267;113551;-61
2024/04/14 07:22:35;;;;;;;7.00;1.50;;;;;;;24.38;57.80;100226.34;128184;1262;127786;-63
2024/04/14 07:25:45;;;;;;;2.90;1.60;;;;;;;24.62;57.16;100225.56;128172;1261;114746;-61
2024/04/14 07:28:54;;;;;;;4.40;1.10;;;;;;;24.81;56.50;100220.34;128365;1262;114755;-62
2024/04/14 07:32:00;;;;;;;2.50;1.20;;;;;;;25.08;56.32;100215.73;128270;1257;113435;-62
2024/04/14 07:35:07;;;;;;;3.00;1.60;;;;;;;25.32;55.46;100215.38;128089;1268;114470;-62
2024/04/14 07:38:11;;;;;;;3.70;1.60;;;;;;;25.49;54.40;100220.30;128045;1262;119266;-62
2024/04/14 07:41:19;;;;;;;4.00;1.20;;;;;;;25.62;53.87;100217.73;127928;1266;115002;-63
2024/04/14 07:44:27;;;;;;;3.20;1.40;;;;;;;25.80;53.39;100211.41;128359;1262;115182;-69
2024/04/14 07:47:34;;;;;;;2.60;1.40;;;;;;;26.09;52.91;100213.78;128117;1263;113301;-63
2024/04/14 07:50:47;;;;;;;1.30;1.00;;;;;;;26.36;52.29;100210.40;131225;1261;114152;-67
2024/04/14 07:54:08;;;;;;;3.20;1.20;;;;;;;26.53;51.44;100212.52;128222;1265;119274;-62
2024/04/14 07:57:43;;;;;;;3.00;1.20;;;;;;;26.58;50.50;100212.04;128186;1261;114689;-64
2024/04/14 08:01:04;;;;;;;3.40;1.20;;;;;;;26.68;50.11;100212.38;128210;1263;114902;-62
2024/04/14 08:04:14;;;;;;;5.20;1.30;;;;;;;26.93;49.65;100215.65;128234;1262;114695;-65
2024/04/14 08:07:46;;;;;;;2.40;1.20;;;;;;;27.29;49.37;100214.62;128295;1263;114820;-61
2024/04/14 08:11:18;;;;;;;3.60;1.50;;;;;;;27.68;48.86;100213.05;128216;1264;120281;-64
2024/04/14 08:14:41;;;;;;;3.40;1.20;;;;;;;28.00;47.84;100215.10;128206;1263;113452;-63
2024/04/14 08:18:02;;;;;;;2.90;1.30;;;;;;;28.21;46.67;100218.08;128410;1263;113672;-64
2024/04/14 08:21:34;;;;;;;3.60;1.00;;;;;;;28.40;45.84;100210.29;128309;1261;114490;-58
2024/04/14 08:25:00;;;;;;;3.00;1.10;;;;;;;28.58;45.33;100211.41;128447;1263;114615;-61
2024/04/14 08:28:13;;;;;;;4.30;1.20;;;;;;;28.84;44.57;100207.61;128331;1259;119212;-63
2024/04/14 08:31:39;;;;;;;2.50;1.30;;;;;;;29.13;44.27;100200.45;128259;1263;113281;-63
2024/04/14 08:34:55;;;;;;;3.20;1.20;;;;;;;29.48;44.01;100204.89;130909;1257;114733;-65
2024/04/14 08:38:48;;;;;;;;;;;;;;;;;;;;;
2024/04/14 08:41:50;;;;;;;;;;;;;;;30.17;43.16;100201.41;128703;1277;114827;-63
2024/04/14 08:44:59;;;;;;;2.40;1.20;;;;;;;30.22;42.15;100200.83;128703;1274;114942;-65
2024/04/14 08:48:17;;;;;;;3.40;1.30;;;;;;;30.09;41.87;100198.16;129116;1270;114957;-66
2024/04/14 08:51:37;;;;;;;4.60;1.10;;;;;;;29.93;41.90;100198.59;129129;1267;114917;-64
2024/04/14 08:54:51;;;;;;;4.10;1.60;;;;;;;29.80;41.73;100200.22;128972;1267;114901;-66
2024/04/14 08:58:37;;;;;;;3.40;1.30;;;;;;;29.67;41.81;100201.60;129397;1271;115352;-66
2024/04/14 09:02:05;;;;;;;4.40;1.40;;;;;;;29.65;41.33;100206.23;128512;1271;120427;-65
2024/04/14 09:05:37;;;;;;;2.20;1.40;;;;;;;29.53;40.69;100209.17;128495;1271;114784;-66
2024/04/14 09:09:08;;;;;;;5.70;1.60;;;;;;;29.42;40.41;100212.64;129056;1276;115031;-64
2024/04/14 09:12:36;;;;;;;3.20;1.50;;;;;;;29.34;40.48;100214.19;128773;1276;114985;-68
2024/04/14 09:15:57;;;;;;;4.00;1.20;;;;;;;29.24;40.05;100215.63;129027;1274;114959;-64
2024/04/14 09:19:07;;;;;;;3.80;1.60;;;;;;;29.04;39.95;100219.55;129017;1283;120371;-65
2024/04/14 09:22:19;;;;;;;2.00;1.30;;;;;;;28.90;39.75;100218.85;128831;1288;114958;-65
2024/04/14 09:26:11;;;;;;;3.50;1.40;;;;;;;28.76;39.38;100221.27;129303;1286;114916;-65
2024/04/14 09:30:24;;;;;;;;;;;;;;;;;;;;;
2024/04/14 09:33:47;;;;;;;5.90;1.30;;;;;;;28.68;39.21;100220.66;128437;1277;114943;-64
2024/04/14 09:37:26;;;;;;;;;;;;;;;;;;;;;
2024/04/14 09:41:30;;;;;;;3.80;1.20;;;;;;;28.58;39.23;100225.05;128611;1277;114911;-64
2024/04/14 09:45:23;;;;;;;3.60;1.30;;;;;;;28.59;39.24;100220.53;127369;1288;114937;-65
2024/04/14 09:49:24;;;;;;;4.60;1.60;;;;;;;28.47;39.14;100217.07;127103;1283;114948;-64
2024/04/14 09:53:22;;;;;;;4.20;1.30;;;;;;;28.40;39.12;100221.07;126112;1293;114947;-63
2024/04/14 09:56:45;;;;;;;;;;;;;;;;;;;;;
2024/04/14 10:00:22;;;;;;;2.30;1.20;;;;;;;27.93;38.63;100228.92;124899;1306;117313;-62
2024/04/14 10:03:55;;;;;;;;;;;;;;;;;;;;;
2024/04/14 10:07:50;;;;;;;2.50;1.50;;;;;;;27.07;38.72;100233.79;125409;1302;115237;-65
2024/04/14 10:11:46;;;;;;;;;;;;;;;;;;;;;
2024/04/14 10:15:26;;;;;;;5.20;1.30;;;;;;;26.24;39.71;100237.32;124751;1310;121188;-68
2024/04/14 10:23:24;;;;;;;4.10;1.70;;;;;;;25.60;40.55;100239.47;125933;1302;636129;-68
2024/04/14 10:26:55;;;;;;;;;;;;;;;;;;;;;
2024/04/14 10:30:39;;;;;;;3.00;1.80;;;;;;;25.14;41.39;100245.58;128574;1279;114862;-66
2024/04/14 10:34:05;;;;;;;3.20;1.60;;;;;;;24.95;41.74;100245.96;128144;1282;114917;-67
2024/04/14 10:37:38;;;;;;;3.70;1.40;;;;;;;24.81;41.87;100244.05;124501;1280;5408713;-64
2024/04/14 10:40:50;;;;;;;4.90;1.70;;;;;;;24.76;42.25;100245.88;128004;1294;114875;-65
2024/04/14 10:44:28;;;;;;;3.70;1.90;;;;;;;24.71;42.13;100249.21;127535;1302;114940;-67
2024/04/14 10:48:07;;;;;;;5.70;2.00;;;;;;;24.78;42.53;100239.29;127946;1291;128992;-66
2024/04/14 10:52:05;;;;;;;4.90;1.70;;;;;;;24.89;42.56;100238.15;127302;1296;115388;-68
2024/04/14 10:55:29;;;;;;;3.60;2.00;;;;;;;25.03;42.43;100236.16;127952;1280;114877;-67
2024/04/14 10:59:20;;;;;;;;;;;;;;;;;;;;;
2024/04/14 11:02:43;;;;;;;3.50;1.80;;;;;;;25.40;42.55;100237.02;127459;1281;116440;-67
2024/04/14 11:06:28;;;;;;;;;;;;;;;;;;;;;
2024/04/14 11:10:03;;;;;;;4.20;1.60;;;;;;;25.63;41.98;100236.25;128499;1278;114918;-68
2024/04/14 11:13:34;;;;;;;4.50;1.90;;;;;;;25.58;41.96;100230.94;128812;1275;114883;-69
2024/04/14 11:17:11;;;;;;;;;;;;;;;;;;;;;
2024/04/14 11:20:49;;;;;;;4.20;1.60;;;;;;;25.63;41.66;100230.70;129001;1287;115121;-68
2024/04/14 11:24:16;;;;;;;;;;;;;;;;;;;;;
2024/04/14 11:27:44;;;;;;;;;;;;;;;;;;;;;
2024/04/14 11:31:31;;;;;;;2.70;1.80;;;;;;;25.85;41.38;100236.84;129162;1281;114753;-65
2024/04/14 11:35:00;;;;;;;3.70;1.80;;;;;;;25.83;41.33;100237.40;128977;1273;114750;-64
2024/04/14 11:38:20;;;;;;;2.70;1.50;;;;;;;25.76;41.02;100239.45;128171;1289;114872;-65
2024/04/14 11:41:59;;;;;;;3.40;1.70;;;;;;;25.59;41.08;100242.40;128509;1274;120440;-66
2024/04/14 11:45:58;;;;;;;2.50;1.50;;;;;;;25.43;41.24;100239.94;128525;1273;115495;-65
2024/04/14 11:49:34;;;;;;;5.90;1.60;;;;;;;25.31;41.28;100243.46;128437;1274;114933;-66
2024/04/14 11:53:20;;;;;;;2.70;1.30;;;;;;;25.20;41.44;100239.91;128800;1287;114927;-65
2024/04/14 11:57:10;;;;;;;2.60;1.40;;;;;;;25.24;41.71;100245.93;128600;1270;114936;-67
2024/04/14 12:00:46;;;;;;;3.10;1.50;;;;;;;25.33;41.42;100255.11;128811;1293;121374;-70
2024/04/14 12:04:04;;;;;;;6.10;1.60;;;;;;;25.36;41.23;100252.02;128837;1270;114819;-67
2024/04/14 12:07:27;;;;;;;5.40;1.90;;;;;;;25.46;41.61;100253.35;128966;1273;115662;-66
2024/04/14 12:11:11;;;;;;;;;;;;;;;;;;;;;
2024/04/14 12:14:47;;;;;;;3.20;1.30;;;;;;;25.52;41.45;100244.67;128454;1287;114922;-66
2024/04/14 12:18:12;;;;;;;3.30;1.40;;;;;;;25.54;41.26;100245.29;129336;1267;120358;-66
2024/04/14 12:22:17;;;;;;;2.20;1.50;;;;;;;25.55;41.26;100240.08;129514;1270;114940;-65
2024/04/14 12:26:02;;;;;;;2.50;1.40;;;;;;;25.50;41.19;100242.27;128929;1273;114662;-65
2024/04/14 12:30:04;;;;;;;;;;;;;;;;;;;;;
2024/04/14 12:34:03;;;;;;;3.60;1.50;;;;;;;25.23;40.69;100237.43;127498;1302;114964;-64
2024/04/14 12:37:04;;;;;;;2.50;1.30;;;;;;;25.03;40.74;100233.11;127282;1286;121984;-63
2024/04/14 12:41:04;;;;;;;2.20;1.40;;;;;;;24.88;40.87;100233.16;127519;1296;114856;-63
2024/04/14 12:44:55;;;;;;;3.60;1.30;;;;;;;24.82;41.16;100235.55;127520;1295;114700;-64
2024/04/14 12:47:56;;;;;;;2.60;1.40;;;;;;;24.72;40.81;100231.53;126922;1280;115013;-64
2024/04/14 12:51:40;;;;;;;;;;;;;;;;;;;;;
2024/04/14 12:55:37;;;;;;;5.10;1.80;;;;;;;24.65;41.43;100225.77;127216;1289;127862;-64
2024/04/14 12:59:38;;;;;;;7.50;1.60;;;;;;;24.73;41.38;100221.41;127051;1283;115014;-64
2024/04/14 13:03:32;;;;;;;;;;;;;;;;;;;;;
2024/04/14 13:07:27;;;;;;;3.10;1.20;;;;;;;24.97;41.01;100212.52;126463;1301;114958;-64
2024/04/14 13:11:13;;;;;;;;;;;;;;;;;;;;;
2024/04/14 13:15:08;;;;;;;3.00;1.80;;;;;;;24.95;40.54;100198.55;126776;1292;121166;-66
2024/04/14 13:18:59;;;;;;;;;;;;;;;;;;;;;
2024/04/14 13:27:22;;;;;;;4.20;1.70;;;;;;;24.98;40.62;100205.27;125703;1298;639771;-66
2024/04/14 13:31:24;;;;;;;2.30;1.20;;;;;;;24.88;40.18;100197.88;128212;1291;119371;-66
2024/04/14 13:35:25;;;;;;;;;;;;;;;;;;;;;
2024/04/14 13:39:17;;;;;;;2.60;1.30;;;;;;;24.51;39.95;100202.50;121828;1302;5421398;-66
2024/04/14 13:43:10;;;;;;;;;;;;;;;;;;;;;
2024/04/14 13:46:44;;;;;;;1.50;0.80;;;;;;;24.03;39.61;100199.95;124776;1329;115010;-64
2024/04/14 13:50:17;;;;;;;3.00;1.00;;;;;;;23.78;39.03;100198.73;124487;1313;129724;-65
2024/04/14 13:53:51;;;;;;;3.10;1.50;;;;;;;23.53;38.75;100192.66;124175;1317;115111;-65
2024/04/14 14:01:49;;;;;;;;;;;;;;;;;;;;;
2024/04/14 14:05:42;;;;;;;3.20;1.00;;;;;;;23.13;39.04;100191.34;129078;1273;128829;-65
2024/04/14 14:09:41;;;;;;;3.70;1.40;;;;;;;23.03;38.87;100198.41;129412;1264;114907;-63
2024/04/14 14:13:21;;;;;;;4.30;1.20;;;;;;;22.97;38.94;100190.48;128932;1271;114952;-64
2024/04/14 14:17:22;;;;;;;4.30;1.30;;;;;;;22.95;39.06;100186.55;125148;1271;114879;-64
2024/04/14 14:21:16;;;;;;;3.30;1.20;;;;;;;23.00;39.26;100187.41;128812;1277;115279;-63
2024/04/14 14:24:53;;;;;;;2.40;1.20;;;;;;;23.02;39.32;100185.54;128938;1272;114875;-64
2024/04/14 14:28:52;;;;;;;;;;;;;;;;;;;;;
2024/04/14 14:36:25;;;;;;;3.70;1.00;;;;;;;22.84;39.68;100183.94;127424;1283;114850;-63
2024/04/14 14:37:11;;;;;;;2.90;0.70;;;;;;;22.75;39.77;100187.05;127025;1288;114882;-63
2024/04/14 14:41:13;;;;;;;1.80;0.60;;;;;;;22.65;39.02;100181.38;125659;1303;115284;-63
2024/04/14 14:44:51;;;;;;;;;;;;;;;;;;;;;
2024/04/14 14:48:46;;;;;;;4.90;1.30;;;;;;;22.53;38.32;100178.94;124335;1331;128749;-63
2024/04/14 14:52:30;;;;;;;2.30;0.80;;;;;;;22.39;38.49;100182.20;124998;1311;115406;-66
2024/04/14 14:56:23;;;;;;;;;;;;;;;;;;;;;
2024/04/14 15:00:10;;;;;;;;;;;;;;;;;;;;;
2024/04/14 15:03:51;;;;;;;3.40;0.90;;;;;;;22.01;39.47;100187.05;124659;1310;115017;-64
2024/04/14 15:07:39;;;;;;;;;;;;;;;;;;;;;
2024/04/14 15:15:43;;;;;;;4.40;0.70;;;;;;;21.75;39.65;100191.08;126536;1295;636124;-64
2024/04/14 15:19:22;;;;;;;5.10;1.00;;;;;;;21.56;39.76;100200.92;129385;1269;129229;-63
2024/04/14 15:23:25;;;;;;;4.40;0.80;;;;;;;21.48;39.72;100199.31;128690;1296;115467;-63
2024/04/14 15:27:13;;;;;;;;;;;;;;;;;;;;;
2024/04/14 15:31:01;;;;;;;4.10;1.40;;;;;;;21.24;39.93;100203.42;124529;1275;114821;-62
2024/04/14 15:34:35;;;;;;;2.60;0.80;;;;;;;21.10;39.94;100201.85;127615;1297;115223;-67
2024/04/14 15:38:41;;;;;;;;;;;;;;;;;;;;;
2024/04/14 15:42:31;;;;;;;;;;;;;;;;;;;;;
2024/04/14 15:46:15;;;;;;;;;;;;;;;;;;;;;
2024/04/14 15:49:57;;;;;;;;;;;;;;;20.76;40.03;100193.56;124516;1317;114943;-64
2024/04/14 15:53:39;;;;;;;;;;;;;;;;;;;;;
2024/04/14 15:57:18;;;;;;;;;;;;;;;;;;;;;
2024/04/14 16:01:15;;;;;;;;;;;;;;;;;;;;;
2024/04/14 16:04:57;;;;;;;;;;;;;;;20.61;40.28;100188.08;125265;1310;115835;-63
2024/04/14 16:08:51;;;;;;;;;;;;;;;;;;;;;
2024/04/14 16:12:54;;;;;;;3.30;1.00;;;;;;;20.41;40.46;100201.75;125248;1323;114965;-67
2024/04/14 16:16:18;;;;;;;3.50;0.70;;;;;;;20.30;40.45;100211.65;124127;1313;114940;-64
2024/04/14 16:19:22;;;;;;;3.20;0.90;;;;;;;20.16;40.52;100209.04;124738;1310;128419;-63
2024/04/14 16:22:34;;;;;;;;;;;;;;;20.10;40.76;100211.64;125462;1315;114982;-65
2024/04/14 16:26:01;;;;;;;3.20;0.60;;;;;;;19.98;40.68;100207.30;125849;1302;114943;-63
2024/04/14 16:29:20;;;;;;;3.70;0.90;;;;;;;19.78;40.77;100209.42;126189;1316;114910;-63
2024/04/14 16:32:33;;;;;;;4.20;0.70;;;;;;;19.59;40.86;100202.36;125969;1316;114819;-64
2024/04/14 16:35:44;;;;;;;3.00;0.50;;;;;;;19.44;40.86;100202.29;125907;1316;130018;-63